AGROMETEOROLOŠKI PORTAL

Vinorodna pokrajina

Temelj dobrega kmetovanja.

Pregled podatkov za lokacijo Celje - Medlog ARSO, meteorološka postaja 102

Pregled senzorjev na lokaciji

ID Ime Zadnja
vrednost
Datum in čas
meritve
(lokalni čas)
Tip
senzorja
6027 Zračni tlak (hPa) 970 hPa 23.2.2024 22:00 ARSO
2277 Sončno sevanje (W/m2) 0 W/m2 23.2.2024 22:00 ARSO
2283 Padavine (mm) 1,1 mm 23.2.2024 22:00 ARSO
2271 Relativna zračna vlaga (2 m) (% RH) 78 % RH 23.2.2024 22:00 ARSO
2274 Temperatura tal (5 cm) (°C) 8,1 °C 23.2.2024 22:00 ARSO
2275 Temperatura tal (10 cm) (°C) 7,9 °C 23.2.2024 22:00 ARSO
2276 Temperatura tal (30 cm) (°C) 7,4 °C 23.2.2024 22:00 ARSO
2268 Temperatura (2 m) (°C) 10,9 °C 23.2.2024 22:00 ARSO
2279 Smer vetra (2 m) (°) 182 ° 23.2.2024 22:00 ARSO
2278 Hitrost vetra (2 m) (km/h) 8 km/h 23.2.2024 22:00 ARSO

Pregled podatkov zadnjih 24 ur

Zap.
št.
Datum in čas
(lokalni čas)
Celje - Medlog ARSO
Zračni
tlak
Sončno
sevanje
Padavine Relativna
zračna
vlaga
(2
m)
Temperatura
tal
(5
cm)
Temperatura
tal
(10
cm)
Temperatura
tal
(30
cm)
Temperatura
(2
m)
Smer
vetra
(2
m)
Hitrost
vetra
(2
m)
1 23.2.2024 22:00 970,1 0 1,1 78 8,1 7,9 7,4 10,9 182 8
2 23.2.2024 21:30 969,8 0 0,3 70 8,1 7,9 7,4 11,7 156 10
3 23.2.2024 21:00 969,7 0 0,4 64 8,1 8 7,4 12,5 191 10
4 23.2.2024 20:30 969,2 0 0 56 8,2 7,9 7,4 13,3 165 12
5 23.2.2024 20:00 969 0 0 57 8,1 7,9 7,3 13 124 8
6 23.2.2024 19:30 969 0 0 58 8,2 8 7,3 12,7 105 6
7 23.2.2024 19:00 969 0 0 55 8,1 7,9 7,3 13,2 123 9
8 23.2.2024 18:30 969,2 0 0 54 8,1 7,9 7,3 13,5 124 12
9 23.2.2024 18:00 969,4 0 0 54 8,1 7,8 7,3 13,4 122 10
10 23.2.2024 17:30 969,7 8 0 54 8,1 7,8 7,3 13,7 126 9
11 23.2.2024 17:00 969,7 13 0 54 8 7,8 7,3 13,6 175 8
12 23.2.2024 16:30 970 21 0 52 8 7,7 7,3 13,8 144 11
13 23.2.2024 16:00 970,3 66 0 51 7,9 7,6 7,3 14 167 10
14 23.2.2024 15:30 970,5 106 0 53 7,8 7,5 7,3 13,8 132 10
15 23.2.2024 15:00 970,7 165 0 54 7,7 7,5 7,2 13,6 341 6
16 23.2.2024 14:30 971,1 181 0 57 7,5 7,5 7,3 12,9 51 8
17 23.2.2024 14:00 971,6 229 0 56 7,5 7,5 7,2 12,9 67 11
18 23.2.2024 13:30 972 178 0 57 7,5 7,5 7,3 12,5 92 9
19 23.2.2024 13:00 972,4 98 0 58 7,4 7,4 7,2 11,9 141 9
20 23.2.2024 12:30 972,7 54 0 59 7,4 7,4 7,2 11,6 136 10
21 23.2.2024 12:00 973,1 66 0 60 7,4 7,4 7,2 11,3 122 10
22 23.2.2024 11:30 973,4 61 0 61 7,3 7,4 7,3 10,8 122 11
23 23.2.2024 11:00 973,4 53 0 71 7,3 7,4 7,2 9,7 96 13
24 23.2.2024 10:30 973,7 50 0 82 7,3 7,4 7,3 8,6 51 6
25 23.2.2024 10:00 974 40 0 84 7,3 7,4 7,3 8,1 1 3
26 23.2.2024 09:30 974,3 20 0 84 7,2 7,4 7,3 8 125 4
27 23.2.2024 09:00 974,6 18 0 83 7,3 7,4 7,2 7,9 105 4
28 23.2.2024 08:30 974,7 12 0 83 7,4 7,4 7,3 7,9 52 4
29 23.2.2024 08:00 974,7 20 0 83 7,4 7,4 7,2 7,8 334 3
30 23.2.2024 07:30 974,7 11 0 83 7,4 7,5 7,2 7,7 86 4
31 23.2.2024 07:00 974,6 0 0 82 7,4 7,4 7,2 7,8 249 3
32 23.2.2024 06:30 974,7 0 0 81 7,3 7,5 7,3 8,1 288 6
33 23.2.2024 06:00 974,8 0 0 78 7,4 7,5 7,2 8,5 266 9
34 23.2.2024 05:30 974,6 0 0 77 7,4 7,4 7,2 8,5 263 13
35 23.2.2024 05:00 974,5 0 0 77 7,4 7,4 7,3 8,6 292 13
36 23.2.2024 04:30 974,7 0 0 77 7,4 7,4 7,2 8,7 297 12
37 23.2.2024 04:00 975 0 0 74 7,4 7,5 7,2 9 293 12
38 23.2.2024 03:30 975 0 0 67 7,4 7,5 7,2 9,9 250 23
39 23.2.2024 03:00 975,1 0 0 68 7,4 7,5 7,2 9,8 240 20
40 23.2.2024 02:30 975,2 0 0 64 7,4 7,5 7,2 10,2 239 18
41 23.2.2024 02:00 975,1 0 0 62 7,4 7,5 7,2 10,3 242 15
42 23.2.2024 01:30 975,1 0 0 60 7,4 7,4 7,2 10,7 241 23
43 23.2.2024 01:00 975,3 0 0 61 7,4 7,5 7,2 11 241 28
44 23.2.2024 00:30 975,3 0 0 62 7,4 7,5 7,2 11,2 243 33
45 23.2.2024 00:00 975,4 0 0 63 7,4 7,5 7,2 11,3 239 33
46 22.2.2024 23:30 975,6 0 0 67 7,5 7,4 7,2 10,8 253 21
47 22.2.2024 23:00 975,8 0 0 69 7,4 7,5 7,2 10,6 246 22